sensor_id;sensor_type;location;lat;lon;timestamp;P1;durP1;ratioP1;P2;durP2;ratioP2
42726;SDS011;28372;56.832;60.658;2022-08-21T00:01:52;9.77;;;7.13;;
42726;SDS011;28372;56.832;60.658;2022-08-21T00:04:20;10.45;;;7.18;;
42726;SDS011;28372;56.832;60.658;2022-08-21T00:06:49;9.25;;;6.95;;
42726;SDS011;28372;56.832;60.658;2022-08-21T00:09:18;9.85;;;7.43;;
42726;SDS011;28372;56.832;60.658;2022-08-21T00:11:46;12.02;;;7.03;;
42726;SDS011;28372;56.832;60.658;2022-08-21T00:14:15;10.93;;;7.43;;
42726;SDS011;28372;56.832;60.658;2022-08-21T00:16:43;11.90;;;7.70;;
42726;SDS011;28372;56.832;60.658;2022-08-21T00:19:10;10.85;;;6.47;;
42726;SDS011;28372;56.832;60.658;2022-08-21T00:21:38;9.90;;;6.75;;
42726;SDS011;28372;56.832;60.658;2022-08-21T00:24:10;9.48;;;7.28;;
42726;SDS011;28372;56.832;60.658;2022-08-21T00:26:38;10.70;;;7.40;;
42726;SDS011;28372;56.832;60.658;2022-08-21T00:29:05;10.68;;;7.57;;
42726;SDS011;28372;56.832;60.658;2022-08-21T00:31:33;11.75;;;7.55;;
42726;SDS011;28372;56.832;60.658;2022-08-21T00:34:01;9.63;;;6.97;;
42726;SDS011;28372;56.832;60.658;2022-08-21T00:36:29;11.43;;;7.20;;
42726;SDS011;28372;56.832;60.658;2022-08-21T00:38:56;10.05;;;6.75;;
42726;SDS011;28372;56.832;60.658;2022-08-21T00:41:24;8.57;;;6.22;;
42726;SDS011;28372;56.832;60.658;2022-08-21T00:44:05;8.35;;;5.88;;
42726;SDS011;28372;56.832;60.658;2022-08-21T00:46:36;9.45;;;6.93;;
42726;SDS011;28372;56.832;60.658;2022-08-21T00:49:05;9.55;;;6.03;;
42726;SDS011;28372;56.832;60.658;2022-08-21T00:51:39;8.82;;;5.80;;
42726;SDS011;28372;56.832;60.658;2022-08-21T00:54:36;7.00;;;5.28;;
42726;SDS011;28372;56.832;60.658;2022-08-21T00:57:13;7.50;;;5.25;;
42726;SDS011;28372;56.832;60.658;2022-08-21T00:59:45;7.88;;;5.68;;
42726;SDS011;28372;56.832;60.658;2022-08-21T01:02:17;7.03;;;4.97;;
42726;SDS011;28372;56.832;60.658;2022-08-21T01:04:45;7.72;;;5.60;;
42726;SDS011;28372;56.832;60.658;2022-08-21T01:07:13;7.35;;;5.05;;
42726;SDS011;28372;56.832;60.658;2022-08-21T01:09:41;8.75;;;5.28;;
42726;SDS011;28372;56.832;60.658;2022-08-21T01:12:09;7.60;;;5.13;;
42726;SDS011;28372;56.832;60.658;2022-08-21T01:14:38;8.68;;;5.57;;
42726;SDS011;28372;56.832;60.658;2022-08-21T01:17:10;8.57;;;5.60;;
42726;SDS011;28372;56.832;60.658;2022-08-21T01:19:40;8.93;;;5.57;;
42726;SDS011;28372;56.832;60.658;2022-08-21T01:22:08;8.60;;;5.35;;
42726;SDS011;28372;56.832;60.658;2022-08-21T01:24:36;9.30;;;6.20;;
42726;SDS011;28372;56.832;60.658;2022-08-21T01:27:04;9.65;;;6.40;;
42726;SDS011;28372;56.832;60.658;2022-08-21T01:29:41;8.70;;;6.07;;
42726;SDS011;28372;56.832;60.658;2022-08-21T01:32:23;9.35;;;6.80;;
42726;SDS011;28372;56.832;60.658;2022-08-21T01:34:52;9.10;;;5.82;;
42726;SDS011;28372;56.832;60.658;2022-08-21T01:37:20;9.63;;;6.43;;
42726;SDS011;28372;56.832;60.658;2022-08-21T01:39:49;9.57;;;6.65;;
42726;SDS011;28372;56.832;60.658;2022-08-21T01:42:17;9.13;;;6.10;;
42726;SDS011;28372;56.832;60.658;2022-08-21T01:44:44;10.07;;;6.05;;
42726;SDS011;28372;56.832;60.658;2022-08-21T01:47:12;10.25;;;6.43;;
42726;SDS011;28372;56.832;60.658;2022-08-21T01:49:44;9.55;;;6.68;;
42726;SDS011;28372;56.832;60.658;2022-08-21T01:52:12;9.25;;;6.47;;
42726;SDS011;28372;56.832;60.658;2022-08-21T01:54:41;11.10;;;6.60;;
42726;SDS011;28372;56.832;60.658;2022-08-21T01:57:08;9.07;;;6.63;;
42726;SDS011;28372;56.832;60.658;2022-08-21T01:59:36;9.57;;;6.50;;
42726;SDS011;28372;56.832;60.658;2022-08-21T02:02:04;9.48;;;6.95;;
42726;SDS011;28372;56.832;60.658;2022-08-21T02:04:32;9.55;;;6.30;;
42726;SDS011;28372;56.832;60.658;2022-08-21T02:07:00;9.18;;;6.63;;
42726;SDS011;28372;56.832;60.658;2022-08-21T02:09:28;9.40;;;6.50;;
42726;SDS011;28372;56.832;60.658;2022-08-21T02:11:56;8.40;;;5.95;;
42726;SDS011;28372;56.832;60.658;2022-08-21T02:14:24;8.77;;;6.25;;
42726;SDS011;28372;56.832;60.658;2022-08-21T02:16:58;8.93;;;6.25;;
42726;SDS011;28372;56.832;60.658;2022-08-21T02:19:36;9.73;;;6.15;;
42726;SDS011;28372;56.832;60.658;2022-08-21T02:22:07;10.20;;;6.32;;
42726;SDS011;28372;56.832;60.658;2022-08-21T02:24:36;9.48;;;5.50;;
42726;SDS011;28372;56.832;60.658;2022-08-21T02:27:21;9.05;;;5.68;;
42726;SDS011;28372;56.832;60.658;2022-08-21T02:29:53;8.18;;;5.55;;
42726;SDS011;28372;56.832;60.658;2022-08-21T02:32:23;8.05;;;5.03;;
42726;SDS011;28372;56.832;60.658;2022-08-21T02:34:51;8.00;;;4.85;;
42726;SDS011;28372;56.832;60.658;2022-08-21T02:37:19;10.77;;;5.40;;
42726;SDS011;28372;56.832;60.658;2022-08-21T02:39:46;7.32;;;4.75;;
42726;SDS011;28372;56.832;60.658;2022-08-21T02:42:14;7.82;;;4.70;;
42726;SDS011;28372;56.832;60.658;2022-08-21T02:44:41;9.25;;;4.60;;
42726;SDS011;28372;56.832;60.658;2022-08-21T02:47:09;7.20;;;4.55;;
42726;SDS011;28372;56.832;60.658;2022-08-21T02:49:36;7.63;;;4.07;;
42726;SDS011;28372;56.832;60.658;2022-08-21T02:52:04;6.20;;;4.10;;
42726;SDS011;28372;56.832;60.658;2022-08-21T02:54:32;6.15;;;3.47;;
42726;SDS011;28372;56.832;60.658;2022-08-21T02:57:00;6.72;;;3.88;;
42726;SDS011;28372;56.832;60.658;2022-08-21T02:59:27;6.30;;;3.83;;
42726;SDS011;28372;56.832;60.658;2022-08-21T03:01:55;6.28;;;3.55;;
42726;SDS011;28372;56.832;60.658;2022-08-21T03:04:23;6.07;;;3.70;;
42726;SDS011;28372;56.832;60.658;2022-08-21T03:06:50;7.88;;;3.88;;
42726;SDS011;28372;56.832;60.658;2022-08-21T03:09:18;6.28;;;3.75;;
42726;SDS011;28372;56.832;60.658;2022-08-21T03:11:45;6.38;;;3.53;;
42726;SDS011;28372;56.832;60.658;2022-08-21T03:14:13;6.65;;;3.78;;
42726;SDS011;28372;56.832;60.658;2022-08-21T03:16:40;6.07;;;3.63;;
42726;SDS011;28372;56.832;60.658;2022-08-21T03:19:09;5.72;;;3.30;;
42726;SDS011;28372;56.832;60.658;2022-08-21T03:21:36;7.38;;;3.63;;
42726;SDS011;28372;56.832;60.658;2022-08-21T03:24:04;5.03;;;2.97;;
42726;SDS011;28372;56.832;60.658;2022-08-21T03:26:33;4.53;;;3.08;;
42726;SDS011;28372;56.832;60.658;2022-08-21T03:29:01;5.38;;;2.88;;
42726;SDS011;28372;56.832;60.658;2022-08-21T03:31:29;4.07;;;2.67;;
42726;SDS011;28372;56.832;60.658;2022-08-21T03:33:58;4.05;;;2.53;;
42726;SDS011;28372;56.832;60.658;2022-08-21T03:36:26;4.90;;;2.63;;
42726;SDS011;28372;56.832;60.658;2022-08-21T03:38:53;5.93;;;2.70;;
42726;SDS011;28372;56.832;60.658;2022-08-21T03:41:21;3.80;;;2.65;;
42726;SDS011;28372;56.832;60.658;2022-08-21T03:43:48;4.32;;;2.38;;
42726;SDS011;28372;56.832;60.658;2022-08-21T03:46:16;4.90;;;2.60;;
42726;SDS011;28372;56.832;60.658;2022-08-21T03:48:43;4.78;;;2.60;;
42726;SDS011;28372;56.832;60.658;2022-08-21T03:51:11;5.28;;;2.50;;
42726;SDS011;28372;56.832;60.658;2022-08-21T03:53:39;3.42;;;2.33;;
42726;SDS011;28372;56.832;60.658;2022-08-21T03:56:06;5.10;;;2.20;;
42726;SDS011;28372;56.832;60.658;2022-08-21T03:58:34;4.97;;;1.95;;
42726;SDS011;28372;56.832;60.658;2022-08-21T04:01:02;5.53;;;2.10;;
42726;SDS011;28372;56.832;60.658;2022-08-21T04:03:34;3.42;;;2.00;;
42726;SDS011;28372;56.832;60.658;2022-08-21T04:06:03;2.92;;;1.95;;
42726;SDS011;28372;56.832;60.658;2022-08-21T04:08:31;3.92;;;2.10;;
42726;SDS011;28372;56.832;60.658;2022-08-21T04:10:59;3.38;;;2.03;;
42726;SDS011;28372;56.832;60.658;2022-08-21T04:13:27;3.83;;;2.15;;
42726;SDS011;28372;56.832;60.658;2022-08-21T04:15:55;3.03;;;2.00;;
42726;SDS011;28372;56.832;60.658;2022-08-21T04:18:23;3.20;;;2.00;;
42726;SDS011;28372;56.832;60.658;2022-08-21T04:20:51;2.95;;;1.83;;
42726;SDS011;28372;56.832;60.658;2022-08-21T04:23:21;4.00;;;2.17;;
42726;SDS011;28372;56.832;60.658;2022-08-21T04:25:51;4.47;;;2.10;;
42726;SDS011;28372;56.832;60.658;2022-08-21T04:28:20;2.88;;;1.92;;
42726;SDS011;28372;56.832;60.658;2022-08-21T04:30:50;3.67;;;2.17;;
42726;SDS011;28372;56.832;60.658;2022-08-21T04:33:19;4.95;;;2.05;;
42726;SDS011;28372;56.832;60.658;2022-08-21T04:35:48;4.22;;;2.10;;
42726;SDS011;28372;56.832;60.658;2022-08-21T04:38:17;2.90;;;2.00;;
42726;SDS011;28372;56.832;60.658;2022-08-21T04:40:44;4.13;;;2.10;;
42726;SDS011;28372;56.832;60.658;2022-08-21T04:43:12;3.28;;;2.00;;
42726;SDS011;28372;56.832;60.658;2022-08-21T04:45:41;3.83;;;2.00;;
42726;SDS011;28372;56.832;60.658;2022-08-21T04:48:11;4.97;;;1.77;;
42726;SDS011;28372;56.832;60.658;2022-08-21T04:53:30;2.80;;;1.63;;
42726;SDS011;28372;56.832;60.658;2022-08-21T04:56:02;3.33;;;1.60;;
42726;SDS011;28372;56.832;60.658;2022-08-21T04:58:39;3.75;;;1.85;;
42726;SDS011;28372;56.832;60.658;2022-08-21T05:01:11;4.72;;;1.98;;
42726;SDS011;28372;56.832;60.658;2022-08-21T05:03:42;4.93;;;2.00;;
42726;SDS011;28372;56.832;60.658;2022-08-21T05:06:12;5.68;;;1.83;;
42726;SDS011;28372;56.832;60.658;2022-08-21T05:08:42;3.85;;;1.60;;
42726;SDS011;28372;56.832;60.658;2022-08-21T05:11:11;5.05;;;1.88;;
42726;SDS011;28372;56.832;60.658;2022-08-21T05:13:40;4.35;;;1.70;;
42726;SDS011;28372;56.832;60.658;2022-08-21T05:16:10;4.90;;;1.90;;
42726;SDS011;28372;56.832;60.658;2022-08-21T05:18:37;3.53;;;1.67;;
42726;SDS011;28372;56.832;60.658;2022-08-21T05:21:05;3.95;;;1.60;;
42726;SDS011;28372;56.832;60.658;2022-08-21T05:23:33;3.53;;;1.67;;
42726;SDS011;28372;56.832;60.658;2022-08-21T05:26:00;3.63;;;1.92;;
42726;SDS011;28372;56.832;60.658;2022-08-21T05:28:28;6.20;;;1.80;;
42726;SDS011;28372;56.832;60.658;2022-08-21T05:30:55;4.28;;;1.70;;
42726;SDS011;28372;56.832;60.658;2022-08-21T05:33:23;4.13;;;1.95;;
42726;SDS011;28372;56.832;60.658;2022-08-21T05:35:52;3.42;;;1.98;;
42726;SDS011;28372;56.832;60.658;2022-08-21T05:38:25;3.60;;;2.00;;
42726;SDS011;28372;56.832;60.658;2022-08-21T05:40:55;3.78;;;1.83;;
42726;SDS011;28372;56.832;60.658;2022-08-21T05:43:22;3.65;;;1.98;;
42726;SDS011;28372;56.832;60.658;2022-08-21T05:45:50;3.80;;;1.90;;
42726;SDS011;28372;56.832;60.658;2022-08-21T05:48:18;4.68;;;2.00;;
42726;SDS011;28372;56.832;60.658;2022-08-21T05:50:48;4.85;;;2.17;;
42726;SDS011;28372;56.832;60.658;2022-08-21T05:53:17;4.30;;;2.15;;
42726;SDS011;28372;56.832;60.658;2022-08-21T05:55:46;4.65;;;2.10;;
42726;SDS011;28372;56.832;60.658;2022-08-21T05:58:15;3.95;;;2.03;;
42726;SDS011;28372;56.832;60.658;2022-08-21T06:00:44;4.95;;;2.05;;
42726;SDS011;28372;56.832;60.658;2022-08-21T06:03:17;5.03;;;2.05;;
42726;SDS011;28372;56.832;60.658;2022-08-21T06:05:46;4.50;;;2.13;;
42726;SDS011;28372;56.832;60.658;2022-08-21T06:08:15;5.82;;;2.30;;
42726;SDS011;28372;56.832;60.658;2022-08-21T06:10:43;5.97;;;2.10;;
42726;SDS011;28372;56.832;60.658;2022-08-21T06:13:12;7.00;;;2.17;;
42726;SDS011;28372;56.832;60.658;2022-08-21T06:15:40;5.38;;;2.60;;
42726;SDS011;28372;56.832;60.658;2022-08-21T06:18:08;5.25;;;2.70;;
42726;SDS011;28372;56.832;60.658;2022-08-21T06:20:36;4.47;;;2.30;;
42726;SDS011;28372;56.832;60.658;2022-08-21T06:23:04;3.38;;;2.08;;
42726;SDS011;28372;56.832;60.658;2022-08-21T06:25:32;5.13;;;2.38;;
42726;SDS011;28372;56.832;60.658;2022-08-21T06:28:01;4.65;;;2.33;;
42726;SDS011;28372;56.832;60.658;2022-08-21T06:30:31;4.97;;;2.40;;
42726;SDS011;28372;56.832;60.658;2022-08-21T06:32:59;5.25;;;2.50;;
42726;SDS011;28372;56.832;60.658;2022-08-21T06:35:27;3.92;;;2.40;;
42726;SDS011;28372;56.832;60.658;2022-08-21T06:37:56;4.55;;;2.28;;
42726;SDS011;28372;56.832;60.658;2022-08-21T06:40:27;4.63;;;2.05;;
42726;SDS011;28372;56.832;60.658;2022-08-21T06:42:58;6.65;;;2.50;;
42726;SDS011;28372;56.832;60.658;2022-08-21T06:45:32;5.03;;;2.20;;
42726;SDS011;28372;56.832;60.658;2022-08-21T06:48:00;6.00;;;2.17;;
42726;SDS011;28372;56.832;60.658;2022-08-21T06:50:28;4.95;;;2.10;;
42726;SDS011;28372;56.832;60.658;2022-08-21T06:53:01;4.40;;;1.95;;
42726;SDS011;28372;56.832;60.658;2022-08-21T06:55:39;4.78;;;2.20;;
42726;SDS011;28372;56.832;60.658;2022-08-21T06:58:07;4.55;;;2.60;;
42726;SDS011;28372;56.832;60.658;2022-08-21T07:00:38;5.05;;;2.60;;
42726;SDS011;28372;56.832;60.658;2022-08-21T07:03:07;3.70;;;2.30;;
42726;SDS011;28372;56.832;60.658;2022-08-21T07:05:42;5.43;;;2.20;;
42726;SDS011;28372;56.832;60.658;2022-08-21T07:08:10;4.57;;;2.28;;
42726;SDS011;28372;56.832;60.658;2022-08-21T07:10:37;4.75;;;2.38;;
42726;SDS011;28372;56.832;60.658;2022-08-21T07:13:05;4.05;;;2.28;;
42726;SDS011;28372;56.832;60.658;2022-08-21T07:15:33;5.07;;;2.30;;
42726;SDS011;28372;56.832;60.658;2022-08-21T07:18:01;4.93;;;2.30;;
42726;SDS011;28372;56.832;60.658;2022-08-21T07:20:30;3.53;;;2.35;;
42726;SDS011;28372;56.832;60.658;2022-08-21T07:22:59;5.65;;;2.35;;
42726;SDS011;28372;56.832;60.658;2022-08-21T07:25:29;4.53;;;2.40;;
42726;SDS011;28372;56.832;60.658;2022-08-21T07:27:56;4.05;;;2.05;;
42726;SDS011;28372;56.832;60.658;2022-08-21T07:30:24;4.50;;;2.30;;
42726;SDS011;28372;56.832;60.658;2022-08-21T07:32:51;5.15;;;2.20;;
42726;SDS011;28372;56.832;60.658;2022-08-21T07:35:19;4.35;;;2.47;;
42726;SDS011;28372;56.832;60.658;2022-08-21T07:37:47;4.03;;;2.40;;
42726;SDS011;28372;56.832;60.658;2022-08-21T07:40:15;5.38;;;2.50;;
42726;SDS011;28372;56.832;60.658;2022-08-21T07:42:44;3.53;;;2.30;;
42726;SDS011;28372;56.832;60.658;2022-08-21T07:45:14;4.32;;;2.40;;
42726;SDS011;28372;56.832;60.658;2022-08-21T07:47:42;4.78;;;2.50;;
42726;SDS011;28372;56.832;60.658;2022-08-21T07:50:11;5.57;;;2.40;;
42726;SDS011;28372;56.832;60.658;2022-08-21T07:52:39;5.10;;;2.38;;
42726;SDS011;28372;56.832;60.658;2022-08-21T07:55:08;3.90;;;2.60;;
42726;SDS011;28372;56.832;60.658;2022-08-21T07:57:37;4.82;;;2.60;;
42726;SDS011;28372;56.832;60.658;2022-08-21T08:00:06;4.10;;;2.55;;
42726;SDS011;28372;56.832;60.658;2022-08-21T08:02:39;4.65;;;2.63;;
42726;SDS011;28372;56.832;60.658;2022-08-21T08:05:08;5.03;;;2.55;;
42726;SDS011;28372;56.832;60.658;2022-08-21T08:07:38;3.58;;;2.72;;
42726;SDS011;28372;56.832;60.658;2022-08-21T08:10:07;5.30;;;2.53;;
42726;SDS011;28372;56.832;60.658;2022-08-21T08:12:36;5.28;;;2.85;;
42726;SDS011;28372;56.832;60.658;2022-08-21T08:15:07;4.88;;;3.33;;
42726;SDS011;28372;56.832;60.658;2022-08-21T08:17:37;4.17;;;2.80;;
42726;SDS011;28372;56.832;60.658;2022-08-21T08:20:06;5.78;;;3.08;;
42726;SDS011;28372;56.832;60.658;2022-08-21T08:22:35;5.40;;;2.97;;
42726;SDS011;28372;56.832;60.658;2022-08-21T08:25:05;5.05;;;3.22;;
42726;SDS011;28372;56.832;60.658;2022-08-21T08:27:36;6.03;;;3.10;;
42726;SDS011;28372;56.832;60.658;2022-08-21T08:30:05;4.50;;;3.08;;
42726;SDS011;28372;56.832;60.658;2022-08-21T08:32:34;6.28;;;3.30;;
42726;SDS011;28372;56.832;60.658;2022-08-21T08:35:02;4.63;;;3.15;;
42726;SDS011;28372;56.832;60.658;2022-08-21T08:37:31;5.60;;;3.65;;
42726;SDS011;28372;56.832;60.658;2022-08-21T08:40:00;6.47;;;3.83;;
42726;SDS011;28372;56.832;60.658;2022-08-21T08:42:32;6.38;;;3.50;;
42726;SDS011;28372;56.832;60.658;2022-08-21T08:45:05;6.65;;;3.97;;
42726;SDS011;28372;56.832;60.658;2022-08-21T08:47:38;8.00;;;4.53;;
42726;SDS011;28372;56.832;60.658;2022-08-21T08:50:27;5.55;;;3.65;;
42726;SDS011;28372;56.832;60.658;2022-08-21T08:53:05;7.60;;;3.42;;
42726;SDS011;28372;56.832;60.658;2022-08-21T08:55:40;5.60;;;3.50;;
42726;SDS011;28372;56.832;60.658;2022-08-21T08:58:16;4.95;;;3.40;;
42726;SDS011;28372;56.832;60.658;2022-08-21T09:00:50;6.55;;;3.80;;
42726;SDS011;28372;56.832;60.658;2022-08-21T09:03:21;4.70;;;3.40;;
42726;SDS011;28372;56.832;60.658;2022-08-21T09:06:02;5.75;;;3.65;;
42726;SDS011;28372;56.832;60.658;2022-08-21T09:08:54;5.22;;;3.35;;
42726;SDS011;28372;56.832;60.658;2022-08-21T09:11:46;5.25;;;3.80;;
42726;SDS011;28372;56.832;60.658;2022-08-21T09:25:45;5.40;;;3.75;;
42726;SDS011;28372;56.832;60.658;2022-08-21T09:28:26;5.53;;;3.92;;
42726;SDS011;28372;56.832;60.658;2022-08-21T09:30:54;5.40;;;3.70;;
42726;SDS011;28372;56.832;60.658;2022-08-21T09:33:22;5.75;;;4.03;;
42726;SDS011;28372;56.832;60.658;2022-08-21T09:35:51;5.63;;;3.90;;
42726;SDS011;28372;56.832;60.658;2022-08-21T09:41:03;5.10;;;3.95;;
42726;SDS011;28372;56.832;60.658;2022-08-21T09:43:33;5.45;;;3.83;;
42726;SDS011;28372;56.832;60.658;2022-08-21T09:46:23;6.55;;;3.83;;
42726;SDS011;28372;56.832;60.658;2022-08-21T09:48:55;5.47;;;3.97;;
42726;SDS011;28372;56.832;60.658;2022-08-21T09:51:26;6.13;;;4.05;;
42726;SDS011;28372;56.832;60.658;2022-08-21T09:56:35;8.35;;;6.63;;
42726;SDS011;28372;56.832;60.658;2022-08-21T10:02:22;6.28;;;4.68;;
42726;SDS011;28372;56.832;60.658;2022-08-21T10:04:54;7.53;;;4.18;;
42726;SDS011;28372;56.832;60.658;2022-08-21T10:07:30;6.13;;;4.35;;
42726;SDS011;28372;56.832;60.658;2022-08-21T10:12:43;5.47;;;4.10;;
42726;SDS011;28372;56.832;60.658;2022-08-21T10:27:20;8.00;;;4.35;;
42726;SDS011;28372;56.832;60.658;2022-08-21T10:29:57;6.47;;;4.20;;
42726;SDS011;28372;56.832;60.658;2022-08-21T10:48:58;7.75;;;4.30;;
42726;SDS011;28372;56.832;60.658;2022-08-21T10:51:50;6.32;;;4.30;;
42726;SDS011;28372;56.832;60.658;2022-08-21T10:57:52;6.20;;;4.53;;
42726;SDS011;28372;56.832;60.658;2022-08-21T11:00:36;5.70;;;4.10;;
42726;SDS011;28372;56.832;60.658;2022-08-21T11:03:12;5.65;;;4.25;;
42726;SDS011;28372;56.832;60.658;2022-08-21T11:08:31;8.32;;;4.50;;
42726;SDS011;28372;56.832;60.658;2022-08-21T11:11:15;6.30;;;4.07;;
42726;SDS011;28372;56.832;60.658;2022-08-21T11:16:42;6.47;;;4.38;;
42726;SDS011;28372;56.832;60.658;2022-08-21T11:21:45;7.72;;;4.50;;
42726;SDS011;28372;56.832;60.658;2022-08-21T11:27:32;7.90;;;5.15;;
42726;SDS011;28372;56.832;60.658;2022-08-21T11:30:11;9.25;;;5.70;;
42726;SDS011;28372;56.832;60.658;2022-08-21T11:38:23;7.90;;;4.60;;
42726;SDS011;28372;56.832;60.658;2022-08-21T11:44:02;9.25;;;4.90;;
42726;SDS011;28372;56.832;60.658;2022-08-21T11:46:49;7.85;;;4.97;;
42726;SDS011;28372;56.832;60.658;2022-08-21T11:49:31;6.80;;;5.22;;
42726;SDS011;28372;56.832;60.658;2022-08-21T11:54:57;7.40;;;4.85;;
42726;SDS011;28372;56.832;60.658;2022-08-21T11:57:31;6.95;;;4.88;;
42726;SDS011;28372;56.832;60.658;2022-08-21T12:02:55;7.78;;;4.60;;
42726;SDS011;28372;56.832;60.658;2022-08-21T12:10:37;6.55;;;4.72;;
42726;SDS011;28372;56.832;60.658;2022-08-21T12:13:08;7.80;;;5.38;;
42726;SDS011;28372;56.832;60.658;2022-08-21T12:16:11;8.07;;;5.07;;
42726;SDS011;28372;56.832;60.658;2022-08-21T12:18:42;6.40;;;4.78;;
42726;SDS011;28372;56.832;60.658;2022-08-21T12:21:20;11.02;;;5.40;;
42726;SDS011;28372;56.832;60.658;2022-08-21T12:26:32;8.68;;;5.55;;
42726;SDS011;28372;56.832;60.658;2022-08-21T12:29:13;8.90;;;5.38;;
42726;SDS011;28372;56.832;60.658;2022-08-21T12:31:48;8.15;;;4.97;;
42726;SDS011;28372;56.832;60.658;2022-08-21T12:34:39;8.02;;;4.60;;
42726;SDS011;28372;56.832;60.658;2022-08-21T12:37:17;6.95;;;5.00;;
42726;SDS011;28372;56.832;60.658;2022-08-21T12:39:50;7.88;;;5.30;;
42726;SDS011;28372;56.832;60.658;2022-08-21T12:42:24;8.77;;;5.25;;
42726;SDS011;28372;56.832;60.658;2022-08-21T12:45:09;6.07;;;4.80;;
42726;SDS011;28372;56.832;60.658;2022-08-21T12:50:32;7.43;;;4.90;;
42726;SDS011;28372;56.832;60.658;2022-08-21T12:55:46;5.75;;;4.38;;
42726;SDS011;28372;56.832;60.658;2022-08-21T12:58:19;7.68;;;4.75;;
42726;SDS011;28372;56.832;60.658;2022-08-21T13:01:07;7.72;;;5.00;;
42726;SDS011;28372;56.832;60.658;2022-08-21T13:03:44;7.30;;;4.90;;
42726;SDS011;28372;56.832;60.658;2022-08-21T13:06:24;6.35;;;4.78;;
42726;SDS011;28372;56.832;60.658;2022-08-21T13:08:59;6.25;;;4.53;;
42726;SDS011;28372;56.832;60.658;2022-08-21T13:11:33;5.80;;;4.50;;
42726;SDS011;28372;56.832;60.658;2022-08-21T13:16:43;5.72;;;4.07;;
42726;SDS011;28372;56.832;60.658;2022-08-21T13:19:11;7.47;;;4.63;;
42726;SDS011;28372;56.832;60.658;2022-08-21T13:21:50;8.00;;;4.53;;
42726;SDS011;28372;56.832;60.658;2022-08-21T13:24:27;6.45;;;4.82;;
42726;SDS011;28372;56.832;60.658;2022-08-21T13:27:56;7.55;;;4.53;;
42726;SDS011;28372;56.832;60.658;2022-08-21T13:32:47;9.00;;;5.10;;
42726;SDS011;28372;56.832;60.658;2022-08-21T13:38:12;9.68;;;5.00;;
42726;SDS011;28372;56.832;60.658;2022-08-21T13:40:44;8.63;;;5.40;;
42726;SDS011;28372;56.832;60.658;2022-08-21T13:43:17;8.75;;;5.10;;
42726;SDS011;28372;56.832;60.658;2022-08-21T13:45:49;6.88;;;4.68;;
42726;SDS011;28372;56.832;60.658;2022-08-21T13:48:19;8.90;;;5.30;;
42726;SDS011;28372;56.832;60.658;2022-08-21T13:50:49;7.70;;;5.30;;
42726;SDS011;28372;56.832;60.658;2022-08-21T13:55:53;9.27;;;5.35;;
42726;SDS011;28372;56.832;60.658;2022-08-21T13:59:00;8.90;;;5.13;;
42726;SDS011;28372;56.832;60.658;2022-08-21T14:01:23;9.23;;;5.75;;
42726;SDS011;28372;56.832;60.658;2022-08-21T14:06:27;8.57;;;5.45;;
42726;SDS011;28372;56.832;60.658;2022-08-21T14:09:00;6.82;;;5.20;;
42726;SDS011;28372;56.832;60.658;2022-08-21T14:11:35;9.90;;;4.88;;
42726;SDS011;28372;56.832;60.658;2022-08-21T14:17:06;8.73;;;5.30;;
42726;SDS011;28372;56.832;60.658;2022-08-21T14:19:51;7.10;;;5.20;;
42726;SDS011;28372;56.832;60.658;2022-08-21T14:25:13;6.18;;;4.82;;
42726;SDS011;28372;56.832;60.658;2022-08-21T14:30:33;9.20;;;5.30;;
42726;SDS011;28372;56.832;60.658;2022-08-21T14:33:03;10.00;;;5.53;;
42726;SDS011;28372;56.832;60.658;2022-08-21T14:35:36;8.48;;;5.38;;
42726;SDS011;28372;56.832;60.658;2022-08-21T14:38:11;8.93;;;5.90;;
42726;SDS011;28372;56.832;60.658;2022-08-21T14:40:43;9.20;;;5.97;;
42726;SDS011;28372;56.832;60.658;2022-08-21T14:43:16;10.65;;;6.15;;
42726;SDS011;28372;56.832;60.658;2022-08-21T14:45:46;7.32;;;5.65;;
42726;SDS011;28372;56.832;60.658;2022-08-21T14:48:14;7.65;;;5.43;;
42726;SDS011;28372;56.832;60.658;2022-08-21T14:50:41;10.75;;;5.93;;
42726;SDS011;28372;56.832;60.658;2022-08-21T14:53:09;10.38;;;5.38;;
42726;SDS011;28372;56.832;60.658;2022-08-21T14:55:38;7.95;;;5.50;;
42726;SDS011;28372;56.832;60.658;2022-08-21T14:58:24;8.77;;;5.60;;
42726;SDS011;28372;56.832;60.658;2022-08-21T15:00:52;7.28;;;5.28;;
42726;SDS011;28372;56.832;60.658;2022-08-21T15:03:22;9.75;;;5.78;;
42726;SDS011;28372;56.832;60.658;2022-08-21T15:05:49;10.45;;;5.70;;
42726;SDS011;28372;56.832;60.658;2022-08-21T15:08:17;10.18;;;5.50;;
42726;SDS011;28372;56.832;60.658;2022-08-21T15:10:45;10.38;;;5.65;;
42726;SDS011;28372;56.832;60.658;2022-08-21T15:13:34;7.18;;;5.43;;
42726;SDS011;28372;56.832;60.658;2022-08-21T15:16:03;7.82;;;5.50;;
42726;SDS011;28372;56.832;60.658;2022-08-21T15:18:30;12.02;;;5.93;;
42726;SDS011;28372;56.832;60.658;2022-08-21T15:20:58;11.63;;;5.82;;
42726;SDS011;28372;56.832;60.658;2022-08-21T15:23:26;11.07;;;6.10;;
42726;SDS011;28372;56.832;60.658;2022-08-21T15:25:53;8.30;;;5.78;;
42726;SDS011;28372;56.832;60.658;2022-08-21T15:28:26;8.38;;;5.70;;
42726;SDS011;28372;56.832;60.658;2022-08-21T15:30:59;12.35;;;5.65;;
42726;SDS011;28372;56.832;60.658;2022-08-21T15:33:27;11.82;;;5.68;;
42726;SDS011;28372;56.832;60.658;2022-08-21T15:35:55;10.10;;;5.60;;
42726;SDS011;28372;56.832;60.658;2022-08-21T15:38:23;9.13;;;6.18;;
42726;SDS011;28372;56.832;60.658;2022-08-21T15:40:51;14.15;;;6.90;;
42726;SDS011;28372;56.832;60.658;2022-08-21T15:45:57;8.80;;;5.80;;
42726;SDS011;28372;56.832;60.658;2022-08-21T15:48:27;8.00;;;5.75;;
42726;SDS011;28372;56.832;60.658;2022-08-21T15:50:55;9.15;;;5.88;;
42726;SDS011;28372;56.832;60.658;2022-08-21T15:53:22;10.05;;;6.50;;
42726;SDS011;28372;56.832;60.658;2022-08-21T15:55:50;11.45;;;7.03;;
42726;SDS011;28372;56.832;60.658;2022-08-21T15:58:17;13.93;;;8.07;;
42726;SDS011;28372;56.832;60.658;2022-08-21T16:00:46;18.83;;;11.10;;
42726;SDS011;28372;56.832;60.658;2022-08-21T16:03:15;14.88;;;7.70;;
42726;SDS011;28372;56.832;60.658;2022-08-21T16:05:44;13.70;;;7.82;;
42726;SDS011;28372;56.832;60.658;2022-08-21T16:08:15;16.55;;;12.45;;
42726;SDS011;28372;56.832;60.658;2022-08-21T16:10:43;12.30;;;6.97;;
42726;SDS011;28372;56.832;60.658;2022-08-21T16:13:23;14.45;;;7.82;;
42726;SDS011;28372;56.832;60.658;2022-08-21T16:16:12;13.32;;;8.50;;
42726;SDS011;28372;56.832;60.658;2022-08-21T16:19:10;14.57;;;7.03;;
42726;SDS011;28372;56.832;60.658;2022-08-21T16:22:17;12.77;;;7.50;;
42726;SDS011;28372;56.832;60.658;2022-08-21T16:24:48;13.77;;;7.00;;
42726;SDS011;28372;56.832;60.658;2022-08-21T16:27:39;12.38;;;6.75;;
42726;SDS011;28372;56.832;60.658;2022-08-21T16:30:30;11.00;;;6.90;;
42726;SDS011;28372;56.832;60.658;2022-08-21T16:33:55;9.15;;;6.25;;
42726;SDS011;28372;56.832;60.658;2022-08-21T16:37:05;11.98;;;5.82;;
42726;SDS011;28372;56.832;60.658;2022-08-21T16:40:03;12.37;;;6.50;;
42726;SDS011;28372;56.832;60.658;2022-08-21T16:43:11;13.07;;;6.63;;
42726;SDS011;28372;56.832;60.658;2022-08-21T16:45:39;11.00;;;6.20;;
42726;SDS011;28372;56.832;60.658;2022-08-21T16:48:09;11.20;;;7.13;;
42726;SDS011;28372;56.832;60.658;2022-08-21T16:50:37;14.60;;;7.18;;
42726;SDS011;28372;56.832;60.658;2022-08-21T16:53:05;10.27;;;6.72;;
42726;SDS011;28372;56.832;60.658;2022-08-21T16:55:34;13.40;;;6.45;;
42726;SDS011;28372;56.832;60.658;2022-08-21T16:58:07;11.85;;;6.55;;
42726;SDS011;28372;56.832;60.658;2022-08-21T17:00:39;10.05;;;6.22;;
42726;SDS011;28372;56.832;60.658;2022-08-21T17:03:11;8.98;;;6.10;;